createdAt,value
2019-01-19T00:05:10.434Z,9.00
2019-01-19T00:07:51.341Z,8.40
2019-01-19T00:10:33.735Z,8.40
2019-01-19T00:13:29.928Z,8.77
2019-01-19T00:16:02.253Z,9.10
2019-01-19T00:18:34.577Z,8.57
2019-01-19T00:21:19.522Z,9.73
2019-01-19T00:24:14.709Z,8.03
2019-01-19T00:27:01.620Z,8.60
2019-01-19T00:29:59.975Z,8.63
2019-01-19T00:32:48.694Z,8.07
2019-01-19T00:35:23.278Z,8.00
2019-01-19T00:38:09.941Z,7.37
2019-01-19T00:41:01.011Z,7.80
2019-01-19T00:43:30.849Z,6.90
2019-01-19T00:46:15.503Z,7.70
2019-01-19T00:48:47.515Z,7.80
2019-01-19T00:51:35.663Z,7.77
2019-01-19T00:54:05.190Z,7.77
2019-01-19T00:56:49.924Z,7.50
2019-01-19T00:59:24.328Z,7.97
2019-01-19T01:02:01.224Z,7.13
2019-01-19T01:04:49.947Z,7.60
2019-01-19T01:07:45.334Z,7.20
2019-01-19T01:10:43.425Z,6.90
2019-01-19T01:13:21.853Z,7.23
2019-01-19T01:16:00.166Z,7.10
2019-01-19T01:18:33.268Z,6.53
2019-01-19T01:21:05.913Z,7.13
2019-01-19T01:23:42.314Z,7.57
2019-01-19T01:26:23.339Z,8.13
2019-01-19T01:29:09.449Z,6.80
2019-01-19T01:32:01.093Z,6.43
2019-01-19T01:34:49.752Z,7.07
2019-01-19T01:37:23.177Z,6.53
2019-01-19T01:40:03.153Z,7.10
2019-01-19T01:42:36.223Z,6.50
2019-01-19T01:45:28.054Z,7.17
2019-01-19T01:48:09.503Z,7.00
2019-01-19T01:50:55.532Z,6.80
2019-01-19T01:53:40.271Z,6.80
2019-01-19T01:56:08.561Z,6.47
2019-01-19T01:58:57.895Z,7.57
2019-01-19T02:01:49.739Z,6.73
2019-01-19T02:04:38.215Z,6.80
2019-01-19T02:07:12.250Z,6.53
2019-01-19T02:10:09.754Z,6.87
2019-01-19T02:12:44.831Z,6.77
2019-01-19T02:15:36.549Z,6.47
2019-01-19T02:18:10.338Z,6.67
2019-01-19T02:20:56.537Z,6.30
2019-01-19T02:23:28.834Z,6.17
2019-01-19T02:26:13.786Z,6.70
2019-01-19T02:29:11.709Z,6.20
2019-01-19T02:32:00.808Z,7.07
2019-01-19T02:34:42.769Z,6.63
2019-01-19T02:37:25.356Z,6.00
2019-01-19T02:42:28.393Z,6.00
2019-01-19T02:45:14.155Z,6.40
2019-01-19T02:47:58.966Z,6.70
2019-01-19T02:50:36.972Z,6.30
2019-01-19T02:53:34.582Z,7.33
2019-01-19T02:56:03.132Z,6.63
2019-01-19T02:58:32.689Z,7.37
2019-01-19T03:01:37.345Z,7.03
2019-01-19T03:04:10.767Z,7.63
2019-01-19T03:06:43.820Z,7.23
2019-01-19T03:09:12.849Z,7.53
2019-01-19T03:12:00.730Z,7.00
2019-01-19T03:14:34.440Z,6.63
2019-01-19T03:17:20.287Z,7.30
2019-01-19T03:20:04.947Z,7.27
2019-01-19T03:22:59.595Z,7.20
2019-01-19T03:25:44.121Z,7.07
2019-01-19T03:28:30.520Z,6.60
2019-01-19T03:31:20.641Z,6.80
2019-01-19T03:34:06.486Z,7.40
2019-01-19T03:36:39.762Z,6.77
2019-01-19T03:39:21.102Z,6.57
2019-01-19T03:42:16.278Z,6.67
2019-01-19T03:44:51.397Z,7.23
2019-01-19T03:47:24.884Z,6.43
2019-01-19T03:50:09.671Z,6.27
2019-01-19T03:52:48.453Z,6.00
2019-01-19T03:55:33.126Z,5.87
2019-01-19T03:58:06.754Z,5.43
2019-01-19T04:01:01.717Z,5.63
2019-01-19T04:03:36.461Z,5.33
2019-01-19T04:06:20.928Z,5.37
2019-01-19T04:09:05.654Z,4.90
2019-01-19T04:11:51.512Z,4.60
2019-01-19T04:14:40.489Z,4.47
2019-01-19T04:17:19.953Z,3.97
2019-01-19T04:20:05.925Z,4.80
2019-01-19T04:22:38.436Z,3.63
2019-01-19T04:25:24.298Z,3.73
2019-01-19T04:27:50.872Z,3.07
2019-01-19T04:30:17.233Z,3.60
2019-01-19T04:32:43.781Z,3.00
2019-01-19T04:35:10.101Z,4.03
2019-01-19T04:37:36.283Z,3.73
2019-01-19T04:40:03.229Z,4.33
2019-01-19T04:42:29.611Z,5.53
2019-01-19T04:44:55.821Z,4.93
2019-01-19T04:47:22.386Z,5.07
2019-01-19T04:49:48.599Z,4.87
2019-01-19T04:52:14.789Z,4.93
2019-01-19T04:54:41.005Z,4.60
2019-01-19T04:57:07.225Z,5.03
2019-01-19T04:59:33.629Z,5.40
2019-01-19T05:01:59.828Z,4.90
2019-01-19T05:04:26.157Z,5.30
2019-01-19T05:06:52.469Z,5.43
2019-01-19T05:09:18.782Z,4.63
2019-01-19T05:11:44.971Z,4.97
2019-01-19T05:14:11.282Z,5.13
2019-01-19T05:16:37.475Z,5.33
2019-01-19T05:19:03.676Z,5.13
2019-01-19T05:21:30.195Z,5.37
2019-01-19T05:23:56.519Z,5.17
2019-01-19T05:26:22.697Z,5.63
2019-01-19T05:28:48.893Z,5.77
2019-01-19T05:31:15.217Z,5.90
2019-01-19T05:33:41.482Z,5.70
2019-01-19T05:36:07.798Z,5.83
2019-01-19T05:38:34.046Z,6.33
2019-01-19T05:41:00.688Z,5.83
2019-01-19T05:46:21.456Z,5.70
2019-01-19T05:48:47.050Z,5.90
2019-01-19T05:51:13.438Z,6.50
2019-01-19T05:53:39.626Z,6.30
2019-01-19T05:56:06.121Z,6.23
2019-01-19T05:58:32.596Z,6.50
2019-01-19T06:00:58.994Z,6.27
2019-01-19T06:03:27.982Z,6.27
2019-01-19T06:05:54.513Z,6.10
2019-01-19T06:08:21.132Z,6.30
2019-01-19T06:10:47.607Z,6.10
2019-01-19T06:13:14.091Z,6.00
2019-01-19T06:15:40.837Z,6.03
2019-01-19T06:18:07.294Z,6.27
2019-01-19T06:20:33.707Z,5.40
2019-01-19T06:23:00.143Z,6.37
2019-01-19T06:25:26.441Z,6.07
2019-01-19T06:27:52.633Z,5.73
2019-01-19T06:30:19.950Z,5.33
2019-01-19T06:32:46.359Z,6.13
2019-01-19T06:35:12.674Z,6.13
2019-01-19T06:37:39.216Z,5.70
2019-01-19T06:40:06.391Z,5.80
2019-01-19T06:42:32.715Z,5.97
2019-01-19T06:44:59.098Z,6.17
2019-01-19T06:47:25.468Z,5.20
2019-01-19T06:49:51.779Z,5.27
2019-01-19T06:52:18.432Z,5.77
2019-01-19T06:54:44.986Z,5.60
2019-01-19T06:57:11.574Z,5.43
2019-01-19T06:59:38.148Z,5.63
2019-01-19T07:02:05.731Z,5.07
2019-01-19T07:04:32.233Z,5.33
2019-01-19T07:07:02.854Z,5.43
2019-01-19T07:09:28.561Z,6.78
2019-01-19T07:11:55.668Z,6.87
2019-01-19T07:14:22.429Z,5.57
2019-01-19T07:16:48.976Z,5.77
2019-01-19T07:19:15.562Z,5.50
2019-01-19T07:21:42.199Z,5.80
2019-01-19T07:24:08.884Z,5.03
2019-01-19T07:26:35.576Z,6.33
2019-01-19T07:29:34.052Z,5.93
2019-01-19T07:32:00.291Z,4.97
2019-01-19T07:34:27.507Z,6.33
2019-01-19T07:36:53.609Z,6.77
2019-01-19T07:39:19.786Z,6.00
2019-01-19T07:41:45.913Z,6.37
2019-01-19T07:44:12.118Z,7.20
2019-01-19T07:46:38.955Z,7.80
2019-01-19T07:49:05.296Z,8.00
2019-01-19T07:51:31.384Z,8.03
2019-01-19T07:53:57.558Z,8.03
2019-01-19T07:56:24.889Z,7.17
2019-01-19T07:58:51.494Z,8.20
2019-01-19T08:01:17.885Z,8.33
2019-01-19T08:03:43.994Z,8.43
2019-01-19T08:06:10.113Z,8.67
2019-01-19T08:08:36.268Z,8.30
2019-01-19T08:11:02.480Z,6.67
2019-01-19T08:13:28.628Z,11.07
2019-01-19T08:15:56.148Z,7.70
2019-01-19T08:18:22.250Z,8.97
2019-01-19T08:20:48.504Z,8.40
2019-01-19T08:23:14.874Z,7.23
2019-01-19T08:25:41.065Z,6.50
2019-01-19T08:28:07.352Z,6.47
2019-01-19T08:30:33.864Z,7.20
2019-01-19T08:33:00.403Z,6.27
2019-01-19T08:35:27.510Z,5.87
2019-01-19T08:37:55.264Z,7.07
2019-01-19T08:40:22.991Z,6.63
2019-01-19T08:42:56.359Z,6.53
2019-01-19T08:45:23.312Z,5.93
2019-01-19T08:47:50.727Z,5.97
2019-01-19T08:50:17.373Z,6.00
2019-01-19T08:52:43.961Z,6.37
2019-01-19T08:55:10.638Z,6.57
2019-01-19T08:57:37.381Z,5.67
2019-01-19T09:00:05.341Z,5.93
2019-01-19T09:02:32.014Z,5.70
2019-01-19T09:04:59.919Z,5.70
2019-01-19T09:07:33.462Z,6.20
2019-01-19T09:09:57.641Z,5.93
2019-01-19T09:12:24.448Z,5.67
2019-01-19T09:14:51.574Z,5.40
2019-01-19T09:17:18.137Z,5.60
2019-01-19T09:19:48.197Z,5.30
2019-01-19T09:22:14.887Z,5.67
2019-01-19T09:24:41.450Z,5.33
2019-01-19T09:27:08.177Z,5.33
2019-01-19T09:29:34.725Z,5.30
2019-01-19T09:32:01.397Z,5.20
2019-01-19T09:34:28.162Z,4.77
2019-01-19T09:36:55.393Z,5.17
2019-01-19T09:39:22.013Z,5.70
2019-01-19T09:41:48.596Z,5.67
2019-01-19T09:44:15.178Z,4.93
2019-01-19T09:46:41.796Z,5.30
2019-01-19T09:49:08.310Z,5.17
2019-01-19T09:51:34.919Z,5.10
2019-01-19T09:54:01.539Z,5.03
2019-01-19T09:56:34.905Z,4.87
2019-01-19T09:59:01.366Z,4.67
2019-01-19T10:01:27.801Z,4.10
2019-01-19T10:03:54.149Z,4.03
2019-01-19T10:06:20.461Z,4.23
2019-01-19T10:08:46.817Z,5.03
2019-01-19T10:11:13.600Z,4.50
2019-01-19T10:13:40.142Z,4.80
2019-01-19T10:16:06.574Z,5.20
2019-01-19T10:18:33.180Z,4.27
2019-01-19T10:21:00.031Z,3.93
2019-01-19T10:23:26.421Z,4.47
2019-01-19T10:25:52.809Z,4.50
2019-01-19T10:28:19.355Z,4.10
2019-01-19T10:30:49.547Z,3.47
2019-01-19T10:33:15.912Z,3.60
2019-01-19T10:35:42.239Z,4.17
2019-01-19T10:38:09.803Z,4.03
2019-01-19T10:40:37.461Z,3.87
2019-01-19T10:43:03.945Z,5.10
2019-01-19T10:45:30.334Z,4.77
2019-01-19T10:47:56.840Z,7.93
2019-01-19T10:50:23.309Z,3.70
2019-01-19T10:52:49.774Z,3.20
2019-01-19T10:55:17.231Z,3.80
2019-01-19T10:57:43.665Z,3.20
2019-01-19T11:00:14.724Z,3.30
2019-01-19T11:02:41.298Z,3.17
2019-01-19T11:05:09.246Z,2.50
2019-01-19T11:07:35.999Z,2.80
2019-01-19T11:10:02.761Z,2.63
2019-01-19T11:12:29.219Z,2.97
2019-01-19T11:14:56.272Z,2.83
2019-01-19T11:17:22.685Z,3.27
2019-01-19T11:19:49.117Z,3.10
2019-01-19T11:22:15.809Z,2.73
2019-01-19T11:25:01.496Z,2.83
2019-01-19T11:27:28.920Z,2.33
2019-01-19T11:29:59.573Z,2.50
2019-01-19T11:32:25.859Z,2.20
2019-01-19T11:34:52.316Z,2.50
2019-01-19T11:37:18.716Z,2.57
2019-01-19T11:39:45.194Z,2.43
2019-01-19T11:42:14.576Z,2.70
2019-01-19T11:44:41.201Z,2.20
2019-01-19T11:47:07.646Z,2.50
2019-01-19T11:49:33.932Z,3.40
2019-01-19T11:52:00.404Z,2.50
2019-01-19T12:00:59.035Z,2.60
2019-01-19T12:03:25.539Z,3.93
2019-01-19T12:05:51.932Z,3.37
2019-01-19T12:08:19.809Z,4.83
2019-01-19T12:10:46.501Z,4.47
2019-01-19T12:13:13.106Z,9.77
2019-01-19T12:15:39.829Z,5.60
2019-01-19T12:18:06.170Z,7.00
2019-01-19T12:20:37.080Z,7.67
2019-01-19T12:23:03.612Z,8.90
2019-01-19T12:25:29.965Z,9.80
2019-01-19T12:27:56.531Z,10.13
2019-01-19T12:30:23.993Z,10.77
2019-01-19T12:32:50.581Z,13.90
2019-01-19T12:35:17.045Z,15.93
2019-01-19T12:37:44.110Z,16.10
2019-01-19T12:40:11.481Z,13.47
2019-01-19T12:42:37.920Z,14.30
2019-01-19T12:45:05.262Z,10.97
2019-01-19T12:47:32.023Z,11.53
2019-01-19T12:50:06.503Z,10.17
2019-01-19T12:53:10.892Z,8.23
2019-01-19T12:55:17.401Z,7.50
2019-01-19T12:57:44.388Z,5.70
2019-01-19T13:00:12.614Z,5.20
2019-01-19T13:02:39.275Z,3.70
2019-01-19T13:05:08.939Z,2.90
2019-01-19T13:07:39.687Z,5.00
2019-01-19T13:10:20.584Z,3.53
2019-01-19T13:12:59.626Z,2.90
2019-01-19T13:15:45.679Z,3.20
2019-01-19T13:18:32.446Z,4.40
2019-01-19T13:21:17.322Z,4.70
2019-01-19T13:24:04.681Z,4.37
2019-01-19T13:26:38.286Z,4.43
2019-01-19T13:29:24.173Z,6.07
2019-01-19T13:32:21.517Z,5.40
2019-01-19T13:35:12.831Z,7.67
2019-01-19T13:37:57.589Z,6.57
2019-01-19T13:40:43.409Z,7.27
2019-01-19T13:43:27.935Z,6.90
2019-01-19T13:46:13.932Z,5.17
2019-01-19T13:49:09.485Z,4.80
2019-01-19T13:51:44.253Z,5.47
2019-01-19T13:54:30.129Z,6.03
2019-01-19T13:57:03.202Z,5.50
2019-01-19T13:59:45.385Z,6.50
2019-01-19T14:02:40.874Z,6.07
2019-01-19T14:05:31.041Z,6.20
2019-01-19T14:08:05.473Z,7.23
2019-01-19T14:11:00.619Z,5.00
2019-01-19T14:13:41.700Z,4.67
2019-01-19T14:16:36.857Z,4.33
2019-01-19T14:19:17.122Z,4.57
2019-01-19T14:22:09.162Z,4.27
2019-01-19T14:24:39.195Z,3.87
2019-01-19T14:27:25.753Z,4.17
2019-01-19T14:30:10.626Z,4.90
2019-01-19T14:32:47.468Z,5.60
2019-01-19T14:35:23.207Z,5.13
2019-01-19T14:37:57.076Z,5.97
2019-01-19T14:41:01.453Z,5.63
2019-01-19T14:43:42.713Z,4.67
2019-01-19T14:46:12.494Z,4.73
2019-01-19T14:49:12.740Z,5.27
2019-01-19T14:51:45.074Z,6.03
2019-01-19T14:54:29.680Z,5.70
2019-01-19T14:57:00.281Z,5.27
2019-01-19T14:59:33.057Z,5.70
2019-01-19T15:02:06.599Z,6.87
2019-01-19T15:04:44.186Z,6.93
2019-01-19T15:07:32.647Z,5.00
2019-01-19T15:10:27.877Z,4.97
2019-01-19T15:13:16.585Z,5.00
2019-01-19T15:15:46.986Z,5.20
2019-01-19T15:18:32.191Z,5.40
2019-01-19T15:21:06.401Z,5.00
2019-01-19T15:23:42.820Z,4.47
2019-01-19T15:26:34.573Z,5.60
2019-01-19T15:29:22.412Z,5.60
2019-01-19T15:32:01.206Z,7.50
2019-01-19T15:34:39.253Z,7.40
2019-01-19T15:37:43.616Z,8.57
2019-01-19T15:40:14.241Z,9.30
2019-01-19T15:42:44.800Z,9.63
2019-01-19T15:45:18.790Z,7.97
2019-01-19T15:47:54.559Z,7.10
2019-01-19T15:50:39.502Z,6.60
2019-01-19T15:53:11.630Z,5.83
2019-01-19T15:55:52.200Z,5.73
2019-01-19T15:58:38.576Z,5.83
2019-01-19T16:01:23.449Z,5.57
2019-01-19T16:04:08.232Z,5.63
2019-01-19T16:06:43.174Z,6.07
2019-01-19T16:09:23.190Z,7.23
2019-01-19T16:12:09.137Z,6.10
2019-01-19T16:14:45.206Z,4.47
2019-01-19T16:17:19.816Z,4.70
2019-01-19T16:20:21.121Z,4.67
2019-01-19T16:22:51.365Z,4.60
2019-01-19T16:25:43.406Z,5.17
2019-01-19T16:28:38.141Z,5.20
2019-01-19T16:31:29.525Z,4.80
2019-01-19T16:34:09.058Z,5.03
2019-01-19T16:36:42.964Z,5.10
2019-01-19T16:39:29.394Z,5.13
2019-01-19T16:42:03.303Z,5.00
2019-01-19T16:45:04.735Z,5.07
2019-01-19T16:47:48.794Z,4.97
2019-01-19T16:50:29.813Z,6.30
2019-01-19T16:53:01.604Z,5.20
2019-01-19T16:55:47.725Z,5.77
2019-01-19T16:58:46.156Z,5.83
2019-01-19T17:01:15.776Z,6.07
2019-01-19T17:04:01.915Z,5.70
2019-01-19T17:06:54.182Z,5.50
2019-01-19T17:09:23.674Z,5.17
2019-01-19T17:12:10.806Z,5.23
2019-01-19T17:14:56.324Z,4.40
2019-01-19T17:17:47.237Z,5.33
2019-01-19T17:20:39.240Z,5.97
2019-01-19T17:23:12.549Z,6.33
2019-01-19T17:25:51.695Z,6.50
2019-01-19T17:28:28.747Z,6.87
2019-01-19T17:31:11.083Z,7.50
2019-01-19T17:34:01.805Z,7.30
2019-01-19T17:36:45.083Z,6.87
2019-01-19T17:39:46.488Z,8.03
2019-01-19T17:42:31.929Z,7.10
2019-01-19T17:45:12.823Z,7.20
2019-01-19T17:47:48.192Z,7.53
2019-01-19T17:50:38.762Z,7.37
2019-01-19T17:53:17.351Z,7.33
2019-01-19T17:55:57.885Z,7.23
2019-01-19T17:58:49.225Z,7.50
2019-01-19T18:01:29.294Z,7.57
2019-01-19T18:04:31.233Z,8.10
2019-01-19T18:07:23.749Z,7.47
2019-01-19T18:09:58.608Z,7.83
2019-01-19T18:12:34.173Z,7.67
2019-01-19T18:15:41.597Z,7.37
2019-01-19T18:18:16.253Z,7.23
2019-01-19T18:21:04.824Z,6.53
2019-01-19T18:23:55.611Z,13.67
2019-01-19T18:26:47.890Z,5.87
2019-01-19T18:29:37.114Z,6.00
2019-01-19T18:32:33.606Z,6.57
2019-01-19T18:35:20.530Z,6.70
2019-01-19T18:38:08.383Z,5.93
2019-01-19T18:40:55.230Z,6.00
2019-01-19T18:43:52.525Z,5.33
2019-01-19T18:49:57.638Z,5.17
2019-01-19T18:53:03.784Z,5.43
2019-01-19T18:55:53.907Z,5.60
2019-01-19T18:59:01.657Z,5.50
2019-01-19T19:01:42.785Z,6.17
2019-01-19T19:04:34.001Z,5.63
2019-01-19T19:07:20.698Z,5.60
2019-01-19T19:10:31.904Z,6.30
2019-01-19T19:13:42.110Z,6.40
2019-01-19T19:16:16.434Z,6.30
2019-01-19T19:19:14.830Z,6.63
2019-01-19T19:21:54.961Z,6.17
2019-01-19T19:24:49.481Z,6.60
2019-01-19T19:27:41.750Z,6.73
2019-01-19T19:30:17.763Z,7.73
2019-01-19T19:33:04.414Z,7.53
2019-01-19T19:35:55.160Z,7.50
2019-01-19T19:38:52.472Z,10.50
2019-01-19T19:41:46.184Z,7.93
2019-01-19T19:44:22.965Z,7.73
2019-01-19T19:47:19.505Z,9.03
2019-01-19T19:50:05.184Z,8.60
2019-01-19T19:52:38.072Z,8.80
2019-01-19T19:55:09.724Z,8.77
2019-01-19T19:57:36.354Z,9.00
2019-01-19T20:00:05.522Z,11.20
2019-01-19T20:02:31.989Z,16.43
2019-01-19T20:04:58.411Z,12.03
2019-01-19T20:07:24.856Z,13.10
2019-01-19T20:09:51.319Z,13.60
2019-01-19T20:12:17.856Z,15.57
2019-01-19T20:14:44.278Z,25.70
2019-01-19T20:17:10.879Z,11.43
2019-01-19T20:19:37.453Z,10.23
2019-01-19T20:22:04.099Z,9.83
2019-01-19T20:24:30.578Z,9.40
2019-01-19T20:26:57.391Z,9.80
2019-01-19T20:29:23.778Z,9.33
2019-01-19T20:31:53.147Z,9.50
2019-01-19T20:34:19.464Z,9.20
2019-01-19T20:36:45.865Z,10.20
2019-01-19T20:39:12.235Z,9.13
2019-01-19T20:41:38.634Z,9.23
2019-01-19T20:44:05.102Z,10.27
2019-01-19T20:46:31.636Z,8.53
2019-01-19T20:48:57.988Z,9.13
2019-01-19T20:51:24.527Z,9.10
2019-01-19T20:53:51.885Z,9.50
2019-01-19T20:56:18.312Z,8.70
2019-01-19T20:58:46.729Z,7.73
2019-01-19T21:01:13.490Z,8.60
2019-01-19T21:03:40.251Z,8.47
2019-01-19T21:06:06.877Z,8.07
2019-01-19T21:08:33.231Z,8.13
2019-01-19T21:10:59.743Z,7.77
2019-01-19T21:13:26.570Z,8.40
2019-01-19T21:15:53.194Z,7.87
2019-01-19T21:18:19.770Z,8.40
2019-01-19T21:20:46.505Z,8.50
2019-01-19T21:23:12.998Z,8.17
2019-01-19T21:25:39.501Z,7.63
2019-01-19T21:28:09.305Z,8.10
2019-01-19T21:30:37.395Z,9.30
2019-01-19T21:33:04.030Z,8.40
2019-01-19T21:35:35.135Z,7.70
2019-01-19T21:38:02.768Z,8.37
2019-01-19T21:40:29.625Z,8.90
2019-01-19T21:42:56.958Z,7.10
2019-01-19T21:45:23.558Z,7.20
2019-01-19T21:47:52.105Z,7.90
2019-01-19T21:50:18.617Z,8.23
2019-01-19T21:52:45.184Z,10.03
2019-01-19T21:55:11.910Z,8.17
2019-01-19T21:57:38.649Z,8.07
2019-01-19T22:00:06.504Z,7.50
2019-01-19T22:02:33.064Z,8.43
2019-01-19T22:04:59.676Z,9.40
2019-01-19T22:07:26.291Z,8.07
2019-01-19T22:09:53.765Z,8.17
2019-01-19T22:12:20.349Z,8.67
2019-01-19T22:14:46.951Z,8.80
2019-01-19T22:17:13.520Z,8.73
2019-01-19T22:19:40.404Z,8.80
2019-01-19T22:22:07.364Z,8.60
2019-01-19T22:24:33.950Z,8.27
2019-01-19T22:27:00.737Z,8.50
2019-01-19T22:29:27.317Z,8.40
2019-01-19T22:32:03.400Z,9.00
2019-01-19T22:34:29.991Z,8.60
2019-01-19T22:36:56.651Z,8.97
2019-01-19T22:39:23.258Z,9.20
2019-01-19T22:41:49.916Z,9.70
2019-01-19T22:44:16.898Z,10.47
2019-01-19T22:46:43.434Z,9.63
2019-01-19T22:49:09.939Z,9.30
2019-01-19T22:51:39.537Z,9.17
2019-01-19T22:54:06.011Z,9.53
2019-01-19T22:56:35.549Z,8.37
2019-01-19T22:59:02.128Z,8.70
2019-01-19T23:01:33.356Z,8.03
2019-01-19T23:03:59.812Z,9.23
2019-01-19T23:06:26.532Z,8.47
2019-01-19T23:08:53.275Z,8.47
2019-01-19T23:11:19.708Z,9.47
2019-01-19T23:13:46.166Z,9.13
2019-01-19T23:16:12.979Z,8.63
2019-01-19T23:18:39.487Z,8.47
2019-01-19T23:21:05.954Z,8.30
2019-01-19T23:23:32.307Z,8.03
2019-01-19T23:26:00.972Z,8.60
2019-01-19T23:28:27.542Z,9.60
2019-01-19T23:30:54.142Z,9.40
2019-01-19T23:33:20.640Z,9.00
2019-01-19T23:35:47.256Z,9.27
2019-01-19T23:38:13.676Z,7.77
2019-01-19T23:40:40.085Z,8.17
2019-01-19T23:43:06.548Z,8.43
2019-01-19T23:45:33.041Z,8.43
2019-01-19T23:47:59.511Z,8.47
2019-01-19T23:50:25.913Z,7.33
2019-01-19T23:52:56.029Z,7.83
2019-01-19T23:55:22.460Z,7.70
2019-01-19T23:57:48.938Z,7.87
